createdAt,value
2022-09-01T00:22:43.612Z,4.10
2022-09-01T00:52:55.880Z,4.60
2022-09-01T01:23:10.879Z,5.07
2022-09-01T01:53:20.698Z,4.27
2022-09-01T02:23:30.206Z,4.73
2022-09-01T02:53:42.811Z,5.37
2022-09-01T03:23:53.442Z,5.07
2022-09-01T03:54:02.886Z,5.00
2022-09-01T04:24:13.646Z,6.23
2022-09-01T04:54:23.500Z,6.77
2022-09-01T05:24:39.807Z,5.43
2022-09-01T05:54:52.102Z,6.30
2022-09-01T06:25:03.141Z,5.80
2022-09-01T06:55:20.649Z,3.90
2022-09-01T07:26:00.452Z,2.22
2022-09-01T07:56:13.604Z,1.95
2022-09-01T08:26:29.715Z,1.30
2022-09-01T08:56:39.679Z,1.15
2022-09-01T09:26:51.577Z,0.98
2022-09-01T09:57:16.447Z,0.80
2022-09-01T10:27:28.391Z,0.80
2022-09-01T10:57:53.876Z,1.17
2022-09-01T11:28:12.062Z,0.60
2022-09-01T11:58:39.514Z,0.65
2022-09-01T12:28:49.998Z,0.65
2022-09-01T12:59:15.476Z,0.68
2022-09-01T13:29:26.372Z,0.68
2022-09-01T13:59:35.092Z,0.68
2022-09-01T14:59:51.332Z,0.80
2022-09-01T15:30:01.875Z,0.40
2022-09-01T16:00:12.518Z,0.43
2022-09-01T16:30:24.147Z,0.50
2022-09-01T17:00:40.030Z,1.33
2022-09-01T17:31:00.590Z,1.60
2022-09-01T18:01:17.670Z,5.20
2022-09-01T18:31:54.330Z,8.47
2022-09-01T19:02:11.858Z,21.93
2022-09-01T19:32:23.603Z,11.80
2022-09-01T20:02:36.087Z,5.20
2022-09-01T20:32:51.981Z,10.27
2022-09-01T21:03:05.695Z,10.23
2022-09-01T21:33:14.325Z,8.23
2022-09-01T22:03:23.040Z,7.43
2022-09-01T22:33:32.030Z,17.10
2022-09-01T23:03:40.921Z,4.63
2022-09-01T23:33:50.175Z,4.00
